sensor_id;sensor_type;location;lat;lon;timestamp;pressure;altitude;pressure_sealevel;temperature;humidity
55171;BME280;41060;47.510;8.680;2022-10-04T00:01:13;97728.94;;;12.26;56.03
55171;BME280;41060;47.510;8.680;2022-10-04T00:03:46;97732.72;;;12.23;55.93
55171;BME280;41060;47.510;8.680;2022-10-04T00:06:18;97742.44;;;12.12;55.95
55171;BME280;41060;47.510;8.680;2022-10-04T00:08:50;97750.09;;;11.93;56.07
55171;BME280;41060;47.510;8.680;2022-10-04T00:11:22;97752.44;;;11.61;56.60
55171;BME280;41060;47.510;8.680;2022-10-04T00:13:53;97754.03;;;11.63;56.49
55171;BME280;41060;47.510;8.680;2022-10-04T00:16:26;97740.31;;;11.69;56.46
55171;BME280;41060;47.510;8.680;2022-10-04T00:19:23;97740.59;;;11.77;56.23
55171;BME280;41060;47.510;8.680;2022-10-04T00:22:18;97742.19;;;11.80;56.12
55171;BME280;41060;47.510;8.680;2022-10-04T00:25:19;97754.38;;;11.82;56.47
55171;BME280;41060;47.510;8.680;2022-10-04T00:31:21;97743.19;;;11.66;56.58
55171;BME280;41060;47.510;8.680;2022-10-04T00:33:57;97748.28;;;11.69;56.46
55171;BME280;41060;47.510;8.680;2022-10-04T00:36:49;97718.47;;;11.66;56.52
55171;BME280;41060;47.510;8.680;2022-10-04T00:39:36;97737.59;;;11.82;56.48
55171;BME280;41060;47.510;8.680;2022-10-04T00:42:17;97735.78;;;11.82;56.16
55171;BME280;41060;47.510;8.680;2022-10-04T00:44:48;97741.19;;;11.81;56.53
55171;BME280;41060;47.510;8.680;2022-10-04T00:47:26;97744.84;;;11.80;56.59
55171;BME280;41060;47.510;8.680;2022-10-04T00:50:01;97739.41;;;11.81;56.54
55171;BME280;41060;47.510;8.680;2022-10-04T00:52:34;97737.00;;;11.78;56.42
55171;BME280;41060;47.510;8.680;2022-10-04T00:55:07;97743.72;;;11.71;56.80
55171;BME280;41060;47.510;8.680;2022-10-04T00:57:39;97746.81;;;11.65;56.48
55171;BME280;41060;47.510;8.680;2022-10-04T01:00:11;97743.09;;;11.68;56.47
55171;BME280;41060;47.510;8.680;2022-10-04T01:02:49;97735.88;;;11.70;56.27
55171;BME280;41060;47.510;8.680;2022-10-04T01:05:19;97736.06;;;11.67;56.68
55171;BME280;41060;47.510;8.680;2022-10-04T01:07:53;97738.13;;;11.63;56.70
55171;BME280;41060;47.510;8.680;2022-10-04T01:10:23;97735.47;;;11.63;56.22
55171;BME280;41060;47.510;8.680;2022-10-04T01:12:56;97688.59;;;11.40;56.12
55171;BME280;41060;47.510;8.680;2022-10-04T01:15:32;97720.41;;;11.64;56.38
55171;BME280;41060;47.510;8.680;2022-10-04T01:18:11;97677.88;;;11.41;56.88
55171;BME280;41060;47.510;8.680;2022-10-04T01:20:39;97721.97;;;11.66;56.83
55171;BME280;41060;47.510;8.680;2022-10-04T01:23:37;97719.88;;;11.59;56.67
55171;BME280;41060;47.510;8.680;2022-10-04T01:29:11;97715.16;;;11.51;56.68
55171;BME280;41060;47.510;8.680;2022-10-04T01:31:39;97690.59;;;11.36;56.63
55171;BME280;41060;47.510;8.680;2022-10-04T01:34:07;97706.97;;;11.54;56.60
55171;BME280;41060;47.510;8.680;2022-10-04T01:36:35;97706.97;;;11.54;56.19
55171;BME280;41060;47.510;8.680;2022-10-04T01:39:06;97696.56;;;11.51;56.38
55171;BME280;41060;47.510;8.680;2022-10-04T01:41:40;97701.94;;;11.38;56.48
55171;BME280;41060;47.510;8.680;2022-10-04T01:44:16;97687.56;;;11.30;56.72
55171;BME280;41060;47.510;8.680;2022-10-04T01:46:49;97691.31;;;11.27;56.80
55171;BME280;41060;47.510;8.680;2022-10-04T01:49:30;97680.41;;;11.19;56.69
55171;BME280;41060;47.510;8.680;2022-10-04T01:52:06;97673.03;;;11.12;56.56
55171;BME280;41060;47.510;8.680;2022-10-04T01:54:39;97691.31;;;11.15;56.29
55171;BME280;41060;47.510;8.680;2022-10-04T01:57:12;97690.81;;;11.09;56.74
55171;BME280;41060;47.510;8.680;2022-10-04T01:59:43;97687.44;;;11.07;57.03
55171;BME280;41060;47.510;8.680;2022-10-04T02:02:27;97687.97;;;11.13;56.85
55171;BME280;41060;47.510;8.680;2022-10-04T02:05:00;97684.47;;;11.12;56.64
55171;BME280;41060;47.510;8.680;2022-10-04T02:07:30;97685.06;;;11.16;56.49
55171;BME280;41060;47.510;8.680;2022-10-04T02:10:03;97692.91;;;11.17;56.59
55171;BME280;41060;47.510;8.680;2022-10-04T02:12:30;97648.09;;;10.90;56.45
55171;BME280;41060;47.510;8.680;2022-10-04T02:15:02;97688.69;;;11.15;56.49
55171;BME280;41060;47.510;8.680;2022-10-04T02:17:32;97686.97;;;11.14;56.30
55171;BME280;41060;47.510;8.680;2022-10-04T02:20:01;97690.81;;;11.09;56.38
55171;BME280;41060;47.510;8.680;2022-10-04T02:22:29;97691.28;;;11.03;56.45
55171;BME280;41060;47.510;8.680;2022-10-04T02:24:56;97685.13;;;11.03;56.62
55171;BME280;41060;47.510;8.680;2022-10-04T02:27:29;97687.78;;;11.03;57.01
55171;BME280;41060;47.510;8.680;2022-10-04T02:29:59;97684.06;;;11.05;57.10
55171;BME280;41060;47.510;8.680;2022-10-04T02:32:29;97683.31;;;11.03;57.04
55171;BME280;41060;47.510;8.680;2022-10-04T02:35:14;97683.53;;;11.00;56.84
55171;BME280;41060;47.510;8.680;2022-10-04T02:37:46;97682.06;;;10.96;56.84
55171;BME280;41060;47.510;8.680;2022-10-04T02:40:16;97680.81;;;10.89;56.77
55171;BME280;41060;47.510;8.680;2022-10-04T02:42:50;97684.53;;;10.87;56.78
55171;BME280;41060;47.510;8.680;2022-10-04T02:45:26;97675.53;;;10.89;56.49
55171;BME280;41060;47.510;8.680;2022-10-04T02:47:59;97680.09;;;10.87;56.76
55171;BME280;41060;47.510;8.680;2022-10-04T02:50:29;97685.81;;;10.81;56.85
55171;BME280;41060;47.510;8.680;2022-10-04T02:53:07;97678.72;;;10.82;56.55
55171;BME280;41060;47.510;8.680;2022-10-04T02:55:38;97677.03;;;10.81;56.58
55171;BME280;41060;47.510;8.680;2022-10-04T02:58:10;97676.06;;;10.82;56.93
55171;BME280;41060;47.510;8.680;2022-10-04T03:00:46;97672.47;;;10.83;56.95
55171;BME280;41060;47.510;8.680;2022-10-04T03:03:21;97663.38;;;10.74;56.94
55171;BME280;41060;47.510;8.680;2022-10-04T03:06:01;97671.63;;;10.82;56.83
55171;BME280;41060;47.510;8.680;2022-10-04T03:08:33;97667.19;;;10.83;56.91
55171;BME280;41060;47.510;8.680;2022-10-04T03:11:03;97663.44;;;10.85;56.92
55171;BME280;41060;47.510;8.680;2022-10-04T03:13:32;97674.34;;;10.93;62.10
55171;BME280;41060;47.510;8.680;2022-10-04T03:16:01;97674.31;;;11.54;62.37
55171;BME280;41060;47.510;8.680;2022-10-04T03:18:29;97669.06;;;12.11;59.98
55171;BME280;41060;47.510;8.680;2022-10-04T03:20:59;97668.03;;;12.58;57.44
55171;BME280;41060;47.510;8.680;2022-10-04T03:23:29;97678.28;;;12.96;56.76
55171;BME280;41060;47.510;8.680;2022-10-04T03:26:00;97673.16;;;13.26;55.07
55171;BME280;41060;47.510;8.680;2022-10-04T03:28:28;97672.97;;;13.50;54.26
55171;BME280;41060;47.510;8.680;2022-10-04T03:30:58;97663.44;;;13.68;53.21
55171;BME280;41060;47.510;8.680;2022-10-04T03:33:26;97650.66;;;13.83;52.71
55171;BME280;41060;47.510;8.680;2022-10-04T03:35:56;97662.56;;;14.00;52.05
55171;BME280;41060;47.510;8.680;2022-10-04T03:38:27;97663.13;;;14.03;51.70
55171;BME280;41060;47.510;8.680;2022-10-04T03:40:56;97659.97;;;14.09;51.48
55171;BME280;41060;47.510;8.680;2022-10-04T03:43:27;97650.78;;;14.13;51.30
55171;BME280;41060;47.510;8.680;2022-10-04T03:45:59;97661.78;;;14.30;51.20
55171;BME280;41060;47.510;8.680;2022-10-04T03:48:32;97661.69;;;14.41;50.67
55171;BME280;41060;47.510;8.680;2022-10-04T03:51:00;97657.16;;;14.52;50.51
55171;BME280;41060;47.510;8.680;2022-10-04T03:53:33;97661.88;;;14.39;49.75
55171;BME280;41060;47.510;8.680;2022-10-04T03:56:07;97663.28;;;14.02;50.87
55171;BME280;41060;47.510;8.680;2022-10-04T03:58:36;97673.44;;;13.55;51.06
55171;BME280;41060;47.510;8.680;2022-10-04T04:01:25;97670.41;;;13.17;52.64
55171;BME280;41060;47.510;8.680;2022-10-04T04:04:00;97668.00;;;12.80;52.86
55171;BME280;41060;47.510;8.680;2022-10-04T04:06:37;97671.50;;;12.25;54.71
55171;BME280;41060;47.510;8.680;2022-10-04T04:09:08;97674.09;;;11.92;55.62
55171;BME280;41060;47.510;8.680;2022-10-04T04:11:42;97675.91;;;11.67;56.63
55171;BME280;41060;47.510;8.680;2022-10-04T04:14:14;97673.06;;;11.46;57.52
55171;BME280;41060;47.510;8.680;2022-10-04T04:16:47;97671.63;;;11.19;58.61
55171;BME280;41060;47.510;8.680;2022-10-04T04:19:17;97670.22;;;10.89;59.54
55171;BME280;41060;47.510;8.680;2022-10-04T04:21:46;97672.59;;;10.81;60.14
55171;BME280;41060;47.510;8.680;2022-10-04T04:24:21;97670.69;;;10.83;59.97
55171;BME280;41060;47.510;8.680;2022-10-04T04:26:52;97666.22;;;10.84;59.87
55171;BME280;41060;47.510;8.680;2022-10-04T04:29:23;97656.91;;;10.78;60.07
55171;BME280;41060;47.510;8.680;2022-10-04T04:31:57;97660.03;;;10.96;60.06
55171;BME280;41060;47.510;8.680;2022-10-04T04:34:27;97662.72;;;11.07;60.21
55171;BME280;41060;47.510;8.680;2022-10-04T04:36:57;97661.78;;;11.08;60.38
55171;BME280;41060;47.510;8.680;2022-10-04T04:39:24;97666.06;;;11.22;59.92
55171;BME280;41060;47.510;8.680;2022-10-04T04:42:12;97665.97;;;11.23;60.31
55171;BME280;41060;47.510;8.680;2022-10-04T04:44:45;97661.28;;;11.27;60.56
55171;BME280;41060;47.510;8.680;2022-10-04T04:47:21;97667.06;;;11.21;61.20
55171;BME280;41060;47.510;8.680;2022-10-04T04:49:50;97665.78;;;11.14;61.47
55171;BME280;41060;47.510;8.680;2022-10-04T04:52:22;97673.59;;;10.91;62.28
55171;BME280;41060;47.510;8.680;2022-10-04T04:54:51;97681.28;;;10.70;63.24
55171;BME280;41060;47.510;8.680;2022-10-04T04:57:19;97684.66;;;10.60;63.64
55171;BME280;41060;47.510;8.680;2022-10-04T04:59:49;97643.94;;;10.37;63.89
55171;BME280;41060;47.510;8.680;2022-10-04T05:02:28;97685.22;;;10.65;64.03
55171;BME280;41060;47.510;8.680;2022-10-04T05:05:14;97682.03;;;10.73;64.08
55171;BME280;41060;47.510;8.680;2022-10-04T05:07:41;97685.41;;;10.75;63.83
55171;BME280;41060;47.510;8.680;2022-10-04T05:10:30;97683.09;;;10.70;64.03
55171;BME280;41060;47.510;8.680;2022-10-04T05:12:58;97685.53;;;10.60;64.44
55171;BME280;41060;47.510;8.680;2022-10-04T05:15:30;97682.66;;;10.51;64.82
55171;BME280;41060;47.510;8.680;2022-10-04T05:17:58;97685.53;;;10.60;64.00
55171;BME280;41060;47.510;8.680;2022-10-04T05:20:28;97679.59;;;10.57;64.17
55171;BME280;41060;47.510;8.680;2022-10-04T05:22:59;97677.56;;;10.48;64.64
55171;BME280;41060;47.510;8.680;2022-10-04T05:25:30;97685.66;;;10.46;64.63
55171;BME280;41060;47.510;8.680;2022-10-04T05:27:58;97687.75;;;10.54;64.55
55171;BME280;41060;47.510;8.680;2022-10-04T05:30:36;97681.72;;;10.64;63.96
55171;BME280;41060;47.510;8.680;2022-10-04T05:33:19;97679.47;;;10.71;63.83
55171;BME280;41060;47.510;8.680;2022-10-04T05:36:01;97679.91;;;10.52;64.22
55171;BME280;41060;47.510;8.680;2022-10-04T05:38:41;97678.84;;;10.42;64.60
55171;BME280;41060;47.510;8.680;2022-10-04T05:41:15;97682.34;;;10.43;65.07
55171;BME280;41060;47.510;8.680;2022-10-04T05:43:48;97683.41;;;10.40;65.14
55171;BME280;41060;47.510;8.680;2022-10-04T05:46:22;97681.00;;;10.24;65.17
55171;BME280;41060;47.510;8.680;2022-10-04T05:48:55;97686.72;;;10.31;65.46
55171;BME280;41060;47.510;8.680;2022-10-04T05:51:26;97689.97;;;10.34;65.18
55171;BME280;41060;47.510;8.680;2022-10-04T05:53:56;97679.91;;;10.40;65.18
55171;BME280;41060;47.510;8.680;2022-10-04T05:56:35;97683.31;;;10.42;64.78
55171;BME280;41060;47.510;8.680;2022-10-04T05:59:17;97690.63;;;10.25;65.78
55171;BME280;41060;47.510;8.680;2022-10-04T06:01:55;97697.50;;;10.15;66.16
55171;BME280;41060;47.510;8.680;2022-10-04T06:04:39;97692.75;;;10.20;66.00
55171;BME280;41060;47.510;8.680;2022-10-04T06:07:19;97694.63;;;10.18;66.18
55171;BME280;41060;47.510;8.680;2022-10-04T06:09:55;97692.22;;;10.15;66.24
55171;BME280;41060;47.510;8.680;2022-10-04T06:12:38;97693.91;;;10.16;66.30
55171;BME280;41060;47.510;8.680;2022-10-04T06:15:25;97700.97;;;10.03;67.34
55171;BME280;41060;47.510;8.680;2022-10-04T06:18:08;97699.59;;;10.10;67.25
55171;BME280;41060;47.510;8.680;2022-10-04T06:21:08;97703.31;;;10.08;67.28
55171;BME280;41060;47.510;8.680;2022-10-04T06:23:47;97708.91;;;10.03;67.01
55171;BME280;41060;47.510;8.680;2022-10-04T06:26:20;97713.06;;;9.94;67.58
55171;BME280;41060;47.510;8.680;2022-10-04T06:28:52;97722.69;;;10.08;67.32
55171;BME280;41060;47.510;8.680;2022-10-04T06:34:54;97727.22;;;9.93;67.59
55171;BME280;41060;47.510;8.680;2022-10-04T06:37:42;97728.06;;;9.94;68.22
55171;BME280;41060;47.510;8.680;2022-10-04T06:40:42;97737.28;;;10.01;68.13
55171;BME280;41060;47.510;8.680;2022-10-04T06:43:28;97750.72;;;9.98;68.28
55171;BME280;41060;47.510;8.680;2022-10-04T06:46:06;97745.22;;;10.01;67.52
55171;BME280;41060;47.510;8.680;2022-10-04T06:48:50;97745.09;;;10.03;67.67
55171;BME280;41060;47.510;8.680;2022-10-04T06:51:36;97749.00;;;9.97;67.89
55171;BME280;41060;47.510;8.680;2022-10-04T06:54:15;97755.50;;;10.06;67.40
55171;BME280;41060;47.510;8.680;2022-10-04T06:57:05;97758.47;;;10.01;67.56
55171;BME280;41060;47.510;8.680;2022-10-04T06:59:49;97754.22;;;10.11;67.73
55171;BME280;41060;47.510;8.680;2022-10-04T07:02:28;97756.16;;;10.22;67.29
55171;BME280;41060;47.510;8.680;2022-10-04T07:05:01;97754.22;;;10.11;67.43
55171;BME280;41060;47.510;8.680;2022-10-04T07:07:32;97752.75;;;10.20;67.24
55171;BME280;41060;47.510;8.680;2022-10-04T07:10:17;97757.94;;;10.09;67.25
55171;BME280;41060;47.510;8.680;2022-10-04T07:12:58;97749.25;;;10.07;67.23
55171;BME280;41060;47.510;8.680;2022-10-04T07:15:35;97742.81;;;10.23;66.64
55171;BME280;41060;47.510;8.680;2022-10-04T07:18:14;97739.44;;;10.47;65.84
55171;BME280;41060;47.510;8.680;2022-10-04T07:20:44;97731.94;;;10.66;65.29
55171;BME280;41060;47.510;8.680;2022-10-04T07:23:19;97737.63;;;10.85;64.73
55171;BME280;41060;47.510;8.680;2022-10-04T07:25:53;97737.28;;;11.02;64.52
55171;BME280;41060;47.510;8.680;2022-10-04T07:28:25;97736.63;;;11.12;64.93
55171;BME280;41060;47.510;8.680;2022-10-04T07:31:13;97745.09;;;11.17;64.99
55171;BME280;41060;47.510;8.680;2022-10-04T07:33:49;97741.69;;;11.15;64.73
55171;BME280;41060;47.510;8.680;2022-10-04T07:36:20;97750.47;;;11.28;63.68
55171;BME280;41060;47.510;8.680;2022-10-04T07:38:50;97746.34;;;11.24;64.53
55171;BME280;41060;47.510;8.680;2022-10-04T07:41:27;97752.44;;;11.37;63.65
55171;BME280;41060;47.510;8.680;2022-10-04T07:43:58;97746.47;;;11.46;63.23
55171;BME280;41060;47.510;8.680;2022-10-04T07:46:39;97755.56;;;11.55;63.66
55171;BME280;41060;47.510;8.680;2022-10-04T07:49:13;97759.63;;;11.47;63.74
55171;BME280;41060;47.510;8.680;2022-10-04T07:52:01;97764.34;;;11.31;64.41
55171;BME280;41060;47.510;8.680;2022-10-04T07:54:36;97761.78;;;11.06;65.18
55171;BME280;41060;47.510;8.680;2022-10-04T07:57:11;97774.16;;;11.05;65.50
55171;BME280;41060;47.510;8.680;2022-10-04T07:59:45;97766.75;;;10.85;66.17
55171;BME280;41060;47.510;8.680;2022-10-04T08:02:22;97780.97;;;10.84;66.39
55171;BME280;41060;47.510;8.680;2022-10-04T08:04:58;97783.63;;;10.97;66.10
55171;BME280;41060;47.510;8.680;2022-10-04T08:07:40;97782.47;;;10.88;66.55
55171;BME280;41060;47.510;8.680;2022-10-04T08:10:17;97795.81;;;10.87;66.72
55171;BME280;41060;47.510;8.680;2022-10-04T08:12:57;97788.09;;;10.84;66.95
55171;BME280;41060;47.510;8.680;2022-10-04T08:15:34;97792.41;;;10.97;67.11
55171;BME280;41060;47.510;8.680;2022-10-04T08:18:15;97787.97;;;10.98;66.77
55171;BME280;41060;47.510;8.680;2022-10-04T08:20:49;97789.75;;;11.10;66.08
55171;BME280;41060;47.510;8.680;2022-10-04T08:23:49;97785.47;;;11.20;65.70
55171;BME280;41060;47.510;8.680;2022-10-04T08:26:31;97783.66;;;11.33;65.98
55171;BME280;41060;47.510;8.680;2022-10-04T08:29:15;97779.94;;;11.23;65.59
55171;BME280;41060;47.510;8.680;2022-10-04T08:32:04;97773.31;;;10.92;66.32
55171;BME280;41060;47.510;8.680;2022-10-04T08:34:58;97785.09;;;10.88;66.74
55171;BME280;41060;47.510;8.680;2022-10-04T08:37:33;97775.16;;;10.79;67.07
55171;BME280;41060;47.510;8.680;2022-10-04T08:40:31;97774.28;;;10.91;66.72
55171;BME280;41060;47.510;8.680;2022-10-04T08:43:23;97773.13;;;10.95;66.81
55171;BME280;41060;47.510;8.680;2022-10-04T08:46:14;97766.44;;;11.02;66.35
55171;BME280;41060;47.510;8.680;2022-10-04T08:49:14;97759.66;;;10.98;66.64
55171;BME280;41060;47.510;8.680;2022-10-04T08:52:28;97765.69;;;11.00;67.09
55171;BME280;41060;47.510;8.680;2022-10-04T08:58:11;97771.78;;;11.14;66.97
55171;BME280;41060;47.510;8.680;2022-10-04T09:00:49;97768.59;;;11.21;66.67
55171;BME280;41060;47.510;8.680;2022-10-04T09:06:40;97771.69;;;11.15;66.85
55171;BME280;41060;47.510;8.680;2022-10-04T09:09:32;97761.00;;;11.17;66.78
55171;BME280;41060;47.510;8.680;2022-10-04T09:12:17;97775.28;;;11.50;66.25
55171;BME280;41060;47.510;8.680;2022-10-04T09:18:02;97755.47;;;11.43;66.51
55171;BME280;41060;47.510;8.680;2022-10-04T09:20:46;97768.94;;;11.53;66.93
55171;BME280;41060;47.510;8.680;2022-10-04T09:23:47;97770.25;;;11.71;66.25
55171;BME280;41060;47.510;8.680;2022-10-04T09:26:21;97770.75;;;11.76;65.91
55171;BME280;41060;47.510;8.680;2022-10-04T09:29:15;97766.09;;;11.67;65.96
55171;BME280;41060;47.510;8.680;2022-10-04T09:31:56;97774.03;;;11.80;65.59
55171;BME280;41060;47.510;8.680;2022-10-04T09:34:34;97764.31;;;11.92;65.14
55171;BME280;41060;47.510;8.680;2022-10-04T09:37:31;97764.13;;;12.06;64.96
55171;BME280;41060;47.510;8.680;2022-10-04T09:40:41;97769.09;;;12.10;65.17
55171;BME280;41060;47.510;8.680;2022-10-04T09:43:53;97771.38;;;12.04;64.67
55171;BME280;41060;47.510;8.680;2022-10-04T09:46:41;97767.25;;;12.00;65.08
55171;BME280;41060;47.510;8.680;2022-10-04T09:49:27;97761.94;;;12.00;64.92
55171;BME280;41060;47.510;8.680;2022-10-04T09:52:12;97765.06;;;11.94;65.23
55171;BME280;41060;47.510;8.680;2022-10-04T09:54:59;97766.97;;;12.26;65.16
55171;BME280;41060;47.510;8.680;2022-10-04T09:57:47;97766.19;;;12.48;64.68
55171;BME280;41060;47.510;8.680;2022-10-04T10:00:22;97758.47;;;12.56;64.06
55171;BME280;41060;47.510;8.680;2022-10-04T10:03:17;97763.06;;;12.65;63.76
55171;BME280;41060;47.510;8.680;2022-10-04T10:09:07;97761.66;;;12.84;63.86
55171;BME280;41060;47.510;8.680;2022-10-04T10:11:43;97767.31;;;12.79;64.04
55171;BME280;41060;47.510;8.680;2022-10-04T10:14:59;97763.56;;;12.71;63.94
55171;BME280;41060;47.510;8.680;2022-10-04T10:17:36;97761.25;;;12.66;64.10
55171;BME280;41060;47.510;8.680;2022-10-04T10:20:27;97763.69;;;12.80;64.43
55171;BME280;41060;47.510;8.680;2022-10-04T10:26:38;97765.28;;;12.83;64.18
55171;BME280;41060;47.510;8.680;2022-10-04T10:29:25;97757.91;;;12.97;63.80
55171;BME280;41060;47.510;8.680;2022-10-04T10:32:14;97763.59;;;13.15;63.10
55171;BME280;41060;47.510;8.680;2022-10-04T10:35:14;97747.88;;;13.23;62.63
55171;BME280;41060;47.510;8.680;2022-10-04T10:37:55;97760.38;;;13.43;62.68
55171;BME280;41060;47.510;8.680;2022-10-04T10:40:39;97752.94;;;13.26;61.78
55171;BME280;41060;47.510;8.680;2022-10-04T10:43:33;97759.47;;;13.33;62.45
55171;BME280;41060;47.510;8.680;2022-10-04T10:46:15;97760.63;;;13.52;61.84
55171;BME280;41060;47.510;8.680;2022-10-04T10:49:06;97758.91;;;13.62;61.84
55171;BME280;41060;47.510;8.680;2022-10-04T10:52:03;97739.94;;;13.55;61.68
55171;BME280;41060;47.510;8.680;2022-10-04T10:54:47;97748.69;;;13.78;61.81
55171;BME280;41060;47.510;8.680;2022-10-04T10:57:42;97760.63;;;13.95;60.96
55171;BME280;41060;47.510;8.680;2022-10-04T11:00:18;97754.63;;;14.13;60.14
55171;BME280;41060;47.510;8.680;2022-10-04T11:03:22;97754.50;;;14.15;59.86
55171;BME280;41060;47.510;8.680;2022-10-04T11:06:10;97753.88;;;14.23;60.86
55171;BME280;41060;47.510;8.680;2022-10-04T11:09:13;97753.41;;;14.06;59.82
55171;BME280;41060;47.510;8.680;2022-10-04T11:12:04;97752.25;;;13.99;60.35
55171;BME280;41060;47.510;8.680;2022-10-04T11:15:08;97752.41;;;14.18;60.12
55171;BME280;41060;47.510;8.680;2022-10-04T11:18:12;97748.34;;;14.86;60.37
55171;BME280;41060;47.510;8.680;2022-10-04T11:21:09;97739.00;;;15.32;58.07
55171;BME280;41060;47.510;8.680;2022-10-04T11:27:00;97740.72;;;15.52;56.53
55171;BME280;41060;47.510;8.680;2022-10-04T11:30:07;97722.72;;;15.45;56.17
55171;BME280;41060;47.510;8.680;2022-10-04T11:36:04;97723.19;;;15.69;55.13
55171;BME280;41060;47.510;8.680;2022-10-04T11:39:15;97713.06;;;15.53;55.30
55171;BME280;41060;47.510;8.680;2022-10-04T11:41:53;97720.66;;;15.67;54.64
55171;BME280;41060;47.510;8.680;2022-10-04T11:47:40;97725.00;;;16.45;53.86
55171;BME280;41060;47.510;8.680;2022-10-04T11:50:32;97716.50;;;16.69;54.18
55171;BME280;41060;47.510;8.680;2022-10-04T11:53:31;97714.97;;;16.67;52.96
55171;BME280;41060;47.510;8.680;2022-10-04T11:56:18;97698.31;;;16.82;53.01
55171;BME280;41060;47.510;8.680;2022-10-04T11:59:06;97696.63;;;17.36;52.45
55171;BME280;41060;47.510;8.680;2022-10-04T12:02:02;97704.56;;;17.73;49.91
55171;BME280;41060;47.510;8.680;2022-10-04T12:07:52;97700.50;;;17.69;49.60
55171;BME280;41060;47.510;8.680;2022-10-04T12:10:23;97686.94;;;17.53;49.20
55171;BME280;41060;47.510;8.680;2022-10-04T12:13:23;97674.19;;;17.64;50.15
55171;BME280;41060;47.510;8.680;2022-10-04T12:16:08;97677.41;;;17.50;49.78
55171;BME280;41060;47.510;8.680;2022-10-04T12:18:56;97671.66;;;17.63;50.07
55171;BME280;41060;47.510;8.680;2022-10-04T12:21:40;97665.75;;;17.59;51.60
55171;BME280;41060;47.510;8.680;2022-10-04T12:27:37;97664.56;;;17.72;49.66
55171;BME280;41060;47.510;8.680;2022-10-04T12:30:21;97666.69;;;17.68;49.58
55171;BME280;41060;47.510;8.680;2022-10-04T12:33:05;97666.47;;;17.79;49.30
55171;BME280;41060;47.510;8.680;2022-10-04T12:35:57;97662.28;;;18.38;47.86
55171;BME280;41060;47.510;8.680;2022-10-04T12:38:48;97660.53;;;18.80;47.50
55171;BME280;41060;47.510;8.680;2022-10-04T12:41:30;97656.47;;;19.10;47.18
55171;BME280;41060;47.510;8.680;2022-10-04T12:44:14;97647.66;;;18.84;46.80
55171;BME280;41060;47.510;8.680;2022-10-04T12:46:54;97648.75;;;19.15;46.63
55171;BME280;41060;47.510;8.680;2022-10-04T12:49:30;97645.84;;;19.51;46.45
55171;BME280;41060;47.510;8.680;2022-10-04T12:52:07;97637.50;;;19.86;46.40
55171;BME280;41060;47.510;8.680;2022-10-04T12:54:40;97637.84;;;20.00;45.51
55171;BME280;41060;47.510;8.680;2022-10-04T12:57:33;97631.16;;;19.29;44.98
55171;BME280;41060;47.510;8.680;2022-10-04T13:00:13;97605.66;;;18.67;46.49
55171;BME280;41060;47.510;8.680;2022-10-04T13:02:56;97640.22;;;18.78;47.55
55171;BME280;41060;47.510;8.680;2022-10-04T13:05:32;97643.66;;;18.96;47.51
55171;BME280;41060;47.510;8.680;2022-10-04T13:08:19;97619.09;;;19.25;46.02
55171;BME280;41060;47.510;8.680;2022-10-04T13:11:20;97636.75;;;19.44;45.95
55171;BME280;41060;47.510;8.680;2022-10-04T13:14:11;97635.56;;;19.38;45.36
55171;BME280;41060;47.510;8.680;2022-10-04T13:16:49;97612.91;;;19.41;45.49
55171;BME280;41060;47.510;8.680;2022-10-04T13:19:24;97638.66;;;19.60;44.65
55171;BME280;41060;47.510;8.680;2022-10-04T13:22:14;97638.50;;;19.77;45.03
55171;BME280;41060;47.510;8.680;2022-10-04T13:24:55;97640.47;;;19.51;44.76
55171;BME280;41060;47.510;8.680;2022-10-04T13:27:38;97607.34;;;19.26;45.60
55171;BME280;41060;47.510;8.680;2022-10-04T13:30:17;97635.25;;;19.41;45.74
55171;BME280;41060;47.510;8.680;2022-10-04T13:32:55;97634.72;;;19.38;46.25
55171;BME280;41060;47.510;8.680;2022-10-04T13:35:31;97624.53;;;19.66;45.56
55171;BME280;41060;47.510;8.680;2022-10-04T13:38:32;97645.06;;;19.83;44.50
55171;BME280;41060;47.510;8.680;2022-10-04T13:41:21;97615.94;;;19.46;45.21
55171;BME280;41060;47.510;8.680;2022-10-04T13:44:11;97648.25;;;19.78;45.14
55171;BME280;41060;47.510;8.680;2022-10-04T13:46:59;97649.44;;;20.00;44.92
55171;BME280;41060;47.510;8.680;2022-10-04T13:49:40;97648.25;;;20.27;44.84
55171;BME280;41060;47.510;8.680;2022-10-04T13:52:18;97639.69;;;20.31;44.05
55171;BME280;41060;47.510;8.680;2022-10-04T13:55:21;97643.38;;;20.47;43.68
55171;BME280;41060;47.510;8.680;2022-10-04T13:58:18;97640.19;;;20.35;43.64
55171;BME280;41060;47.510;8.680;2022-10-04T14:01:04;97641.19;;;20.42;44.00
55171;BME280;41060;47.510;8.680;2022-10-04T14:03:46;97649.38;;;20.65;42.47
55171;BME280;41060;47.510;8.680;2022-10-04T14:09:33;97650.66;;;20.77;42.05
55171;BME280;41060;47.510;8.680;2022-10-04T14:12:23;97606.53;;;20.47;41.92
55171;BME280;41060;47.510;8.680;2022-10-04T14:15:25;97642.72;;;20.37;42.42
55171;BME280;41060;47.510;8.680;2022-10-04T14:21:39;97631.13;;;20.91;41.27
55171;BME280;41060;47.510;8.680;2022-10-04T14:27:40;97629.00;;;20.62;41.30
55171;BME280;41060;47.510;8.680;2022-10-04T14:30:18;97627.53;;;20.60;41.48
55171;BME280;41060;47.510;8.680;2022-10-04T14:35:42;97628.03;;;20.55;41.24
55171;BME280;41060;47.510;8.680;2022-10-04T14:38:36;97635.75;;;20.58;42.39
55171;BME280;41060;47.510;8.680;2022-10-04T14:41:41;97637.22;;;20.77;42.35
55171;BME280;41060;47.510;8.680;2022-10-04T14:44:31;97637.03;;;20.79;42.11
55171;BME280;41060;47.510;8.680;2022-10-04T14:50:07;97624.34;;;20.48;43.73
55171;BME280;41060;47.510;8.680;2022-10-04T14:52:50;97630.56;;;20.49;44.30
55171;BME280;41060;47.510;8.680;2022-10-04T14:55:49;97626.19;;;20.48;43.73
55171;BME280;41060;47.510;8.680;2022-10-04T14:58:28;97630.25;;;20.44;43.99
55171;BME280;41060;47.510;8.680;2022-10-04T15:01:17;97618.00;;;20.25;45.49
55171;BME280;41060;47.510;8.680;2022-10-04T15:03:52;97633.31;;;20.00;45.43
55171;BME280;41060;47.510;8.680;2022-10-04T15:06:35;97634.47;;;19.89;46.72